createdAt,value
2023-10-09T00:01:25.474Z,6.07
2023-10-09T00:03:30.110Z,6.08
2023-10-09T00:05:47.983Z,6.18
2023-10-09T00:07:50.987Z,6.09
2023-10-09T00:09:56.812Z,6.18
2023-10-09T00:12:01.852Z,6.07
2023-10-09T00:14:07.181Z,6.17
2023-10-09T00:16:15.724Z,6.22
2023-10-09T00:18:23.521Z,6.08
2023-10-09T00:20:40.030Z,6.41
2023-10-09T00:22:44.881Z,6.78
2023-10-09T00:24:48.386Z,6.37
2023-10-09T00:26:53.041Z,6.37
2023-10-09T00:28:55.668Z,6.10
2023-10-09T00:30:58.189Z,6.25
2023-10-09T00:33:05.470Z,6.30
2023-10-09T00:35:27.020Z,6.51
2023-10-09T00:37:35.802Z,6.63
2023-10-09T00:39:38.218Z,7.02
2023-10-09T00:41:43.616Z,6.52
2023-10-09T00:43:46.545Z,6.60
2023-10-09T00:45:52.419Z,6.77
2023-10-09T00:48:00.424Z,6.73
2023-10-09T00:50:22.444Z,6.81
2023-10-09T00:52:41.186Z,6.64
2023-10-09T00:54:45.981Z,6.67
2023-10-09T00:56:58.879Z,6.86
2023-10-09T00:59:23.333Z,6.96
2023-10-09T01:01:29.801Z,6.76
2023-10-09T01:03:35.320Z,6.71
2023-10-09T01:05:40.744Z,6.65
2023-10-09T01:07:45.969Z,6.43
2023-10-09T01:09:52.180Z,6.43
2023-10-09T01:12:01.638Z,6.37
2023-10-09T01:14:10.313Z,6.30
2023-10-09T01:16:17.379Z,6.31
2023-10-09T01:18:21.591Z,6.82
2023-10-09T01:20:31.885Z,6.34
2023-10-09T01:22:34.929Z,6.22
2023-10-09T01:24:40.240Z,6.35
2023-10-09T01:26:48.153Z,6.20
2023-10-09T01:28:51.086Z,6.22
2023-10-09T01:30:53.743Z,6.27
2023-10-09T01:32:59.616Z,6.30
2023-10-09T01:35:02.559Z,6.24
2023-10-09T01:37:30.356Z,6.24
2023-10-09T01:39:33.358Z,6.39
2023-10-09T01:41:36.504Z,6.65
2023-10-09T01:43:40.390Z,6.37
2023-10-09T01:45:48.296Z,6.14
2023-10-09T01:47:57.484Z,6.13
2023-10-09T01:50:00.258Z,6.29
2023-10-09T01:52:10.137Z,6.37
2023-10-09T01:54:18.635Z,6.58
2023-10-09T01:56:21.312Z,6.34
2023-10-09T01:58:23.842Z,6.39
2023-10-09T02:00:31.031Z,6.47
2023-10-09T02:02:36.316Z,6.41
2023-10-09T02:04:42.115Z,6.52
2023-10-09T02:06:44.568Z,6.58
2023-10-09T02:08:53.241Z,6.51
2023-10-09T02:10:58.212Z,6.30
2023-10-09T02:13:08.537Z,6.05
2023-10-09T02:15:17.272Z,6.19
2023-10-09T02:17:20.567Z,6.35
2023-10-09T02:19:32.593Z,6.69
2023-10-09T02:21:35.832Z,6.40
2023-10-09T02:23:51.639Z,6.53
2023-10-09T02:26:08.083Z,6.76
2023-10-09T02:28:19.436Z,6.45
2023-10-09T02:30:31.358Z,6.43
2023-10-09T02:32:35.210Z,6.35
2023-10-09T02:34:39.957Z,6.37
2023-10-09T02:36:44.202Z,6.36
2023-10-09T02:38:50.186Z,6.52
2023-10-09T02:41:05.207Z,7.01
2023-10-09T02:43:19.576Z,6.77
2023-10-09T02:45:30.629Z,6.58
2023-10-09T02:47:39.828Z,6.64
2023-10-09T02:49:42.272Z,6.33
2023-10-09T02:51:50.442Z,6.87
2023-10-09T02:54:20.639Z,6.69
2023-10-09T02:56:39.320Z,6.69
2023-10-09T02:58:42.308Z,7.06
2023-10-09T03:00:46.475Z,7.10
2023-10-09T03:02:51.764Z,6.63
2023-10-09T03:04:56.899Z,6.63
2023-10-09T03:07:00.875Z,7.00
2023-10-09T03:09:17.860Z,7.18
2023-10-09T03:11:20.813Z,6.75
2023-10-09T03:13:23.553Z,6.57
2023-10-09T03:15:26.177Z,6.72
2023-10-09T03:17:29.238Z,6.65
2023-10-09T03:19:39.643Z,6.60
2023-10-09T03:21:43.920Z,6.81
2023-10-09T03:23:53.636Z,6.83
2023-10-09T03:26:04.029Z,6.66
2023-10-09T03:28:14.222Z,7.02
2023-10-09T03:30:25.156Z,6.85
2023-10-09T03:32:28.549Z,6.50
2023-10-09T03:34:32.921Z,6.76
2023-10-09T03:36:40.422Z,6.88
2023-10-09T03:38:44.234Z,6.84
2023-10-09T03:40:50.619Z,6.85
2023-10-09T03:42:54.428Z,6.57
2023-10-09T03:44:59.291Z,7.11
2023-10-09T03:47:03.894Z,6.79
2023-10-09T03:49:12.280Z,6.92
2023-10-09T03:51:17.168Z,6.92
2023-10-09T03:53:20.814Z,6.94
2023-10-09T03:55:29.429Z,6.80
2023-10-09T03:57:32.566Z,6.58
2023-10-09T03:59:35.822Z,6.80
2023-10-09T04:01:42.444Z,6.80
2023-10-09T04:03:46.562Z,7.01
2023-10-09T04:05:53.264Z,7.06
2023-10-09T04:07:59.674Z,7.22
2023-10-09T04:10:25.038Z,7.08
2023-10-09T04:12:28.081Z,7.07
2023-10-09T04:14:34.659Z,7.20
2023-10-09T04:16:52.854Z,7.61
2023-10-09T04:18:58.137Z,7.44
2023-10-09T04:21:19.830Z,7.36
2023-10-09T04:23:36.662Z,7.38
2023-10-09T04:25:47.209Z,7.47
2023-10-09T04:27:54.925Z,7.41
2023-10-09T04:29:58.319Z,7.21
2023-10-09T04:32:02.155Z,7.42
2023-10-09T04:34:30.358Z,7.12
2023-10-09T04:36:48.269Z,7.48
2023-10-09T04:39:17.576Z,7.59
2023-10-09T04:41:29.270Z,7.58
2023-10-09T04:43:34.882Z,7.42
2023-10-09T04:45:56.857Z,7.41
2023-10-09T04:48:00.020Z,7.46
2023-10-09T04:50:04.020Z,7.48
2023-10-09T04:52:10.745Z,7.70
2023-10-09T04:54:17.805Z,7.95
2023-10-09T04:56:25.706Z,7.39
2023-10-09T04:58:28.920Z,7.57
2023-10-09T05:00:32.081Z,7.60
2023-10-09T05:02:38.017Z,7.60
2023-10-09T05:04:41.390Z,7.62
2023-10-09T05:06:51.532Z,8.24
2023-10-09T05:08:56.173Z,7.82
2023-10-09T05:11:02.255Z,7.77
2023-10-09T05:13:10.432Z,7.71
2023-10-09T05:15:15.211Z,7.59
2023-10-09T05:17:17.872Z,7.52
2023-10-09T05:19:43.723Z,7.64
2023-10-09T05:21:47.084Z,7.57
2023-10-09T05:28:27.393Z,7.37
2023-10-09T05:44:20.781Z,7.29
2023-10-09T05:55:21.294Z,7.52
2023-10-09T06:06:04.749Z,7.68
2023-10-09T06:12:35.235Z,7.73
2023-10-09T06:19:09.563Z,7.60
2023-10-09T06:22:28.393Z,8.30
2023-10-09T06:24:43.984Z,8.18
2023-10-09T06:27:00.444Z,7.55
2023-10-09T06:29:32.273Z,7.75
2023-10-09T06:31:56.677Z,7.44
2023-10-09T06:34:17.513Z,7.52
2023-10-09T06:36:20.418Z,7.22
2023-10-09T06:38:25.147Z,7.37
2023-10-09T06:40:40.502Z,7.34
2023-10-09T06:42:43.441Z,7.62
2023-10-09T06:44:55.410Z,7.16
2023-10-09T06:47:09.520Z,7.11
2023-10-09T06:49:30.566Z,7.25
2023-10-09T06:51:34.235Z,7.20
2023-10-09T06:54:13.092Z,7.04
2023-10-09T06:56:44.979Z,7.33
2023-10-09T06:58:49.301Z,7.35
2023-10-09T07:01:00.790Z,7.41
2023-10-09T07:03:13.004Z,7.04
2023-10-09T07:05:19.318Z,6.95
2023-10-09T07:07:22.408Z,7.23
2023-10-09T07:09:25.690Z,7.41
2023-10-09T07:11:43.003Z,7.24
2023-10-09T07:13:54.983Z,7.57
2023-10-09T07:16:16.336Z,7.18
2023-10-09T07:18:25.082Z,7.20
2023-10-09T07:20:47.098Z,7.42
2023-10-09T07:22:58.157Z,7.22
2023-10-09T07:25:16.327Z,7.12
2023-10-09T07:27:19.310Z,7.32
2023-10-09T07:29:25.489Z,7.29
2023-10-09T07:31:41.216Z,7.11
2023-10-09T07:33:58.680Z,7.18
2023-10-09T07:36:09.446Z,7.26
2023-10-09T07:38:46.640Z,7.25
2023-10-09T07:41:01.371Z,7.76
2023-10-09T07:43:07.154Z,7.42
2023-10-09T07:45:22.701Z,7.20
2023-10-09T07:47:45.870Z,7.20
2023-10-09T07:49:55.392Z,7.10
2023-10-09T07:52:00.620Z,7.35
2023-10-09T07:54:10.326Z,7.32
2023-10-09T07:56:22.336Z,7.04
2023-10-09T07:58:26.638Z,7.25
2023-10-09T08:00:52.142Z,7.20
2023-10-09T08:03:02.202Z,7.23
2023-10-09T08:05:08.686Z,7.16
2023-10-09T08:08:02.345Z,7.04
2023-10-09T08:10:12.952Z,7.17
2023-10-09T08:12:17.690Z,7.27
2023-10-09T08:14:36.086Z,7.21
2023-10-09T08:16:38.669Z,7.01
2023-10-09T08:18:46.548Z,7.48
2023-10-09T08:20:58.238Z,7.01
2023-10-09T08:23:00.834Z,7.06
2023-10-09T08:25:04.391Z,6.97
2023-10-09T08:27:30.896Z,7.15
2023-10-09T08:29:36.408Z,7.05
2023-10-09T08:31:48.487Z,7.14
2023-10-09T08:36:09.986Z,7.11
2023-10-09T08:38:12.889Z,7.01
2023-10-09T08:40:22.127Z,7.28
2023-10-09T08:42:27.385Z,7.11
2023-10-09T08:44:35.366Z,7.23
2023-10-09T08:46:39.891Z,7.13
2023-10-09T08:48:43.296Z,7.24
2023-10-09T08:50:48.685Z,7.16
2023-10-09T08:52:53.091Z,7.13
2023-10-09T08:54:56.017Z,7.12
2023-10-09T08:57:00.053Z,7.04
2023-10-09T08:59:03.796Z,7.16
2023-10-09T09:01:06.870Z,7.51
2023-10-09T09:03:09.917Z,7.14
2023-10-09T09:05:22.477Z,7.34
2023-10-09T09:07:33.348Z,7.31
2023-10-09T09:09:37.138Z,7.31
2023-10-09T09:11:50.523Z,7.52
2023-10-09T09:14:08.950Z,7.39
2023-10-09T09:16:32.959Z,7.68
2023-10-09T09:18:53.816Z,7.61
2023-10-09T09:20:58.286Z,7.34
2023-10-09T09:23:03.790Z,7.50
2023-10-09T09:25:11.879Z,7.32
2023-10-09T09:27:16.999Z,7.40
2023-10-09T09:29:21.711Z,7.31
2023-10-09T09:31:24.802Z,7.52
2023-10-09T09:33:44.436Z,7.54
2023-10-09T09:36:04.168Z,7.50
2023-10-09T09:38:08.965Z,7.41
2023-10-09T09:40:35.310Z,7.47
2023-10-09T09:42:42.551Z,7.40
2023-10-09T09:44:50.285Z,7.48
2023-10-09T09:46:56.805Z,7.53
2023-10-09T09:49:03.514Z,7.58
2023-10-09T09:51:10.144Z,7.39
2023-10-09T09:53:21.312Z,7.63
2023-10-09T09:55:33.019Z,7.48
2023-10-09T09:57:41.009Z,7.72
2023-10-09T09:59:51.829Z,7.57
2023-10-09T10:01:58.909Z,7.74
2023-10-09T10:04:14.621Z,8.23
2023-10-09T10:06:21.771Z,7.59
2023-10-09T10:08:34.958Z,8.21
2023-10-09T10:10:39.268Z,8.25
2023-10-09T10:13:02.826Z,8.29
2023-10-09T10:15:18.335Z,7.90
2023-10-09T10:17:23.646Z,7.92
2023-10-09T10:19:26.829Z,8.12
2023-10-09T10:21:34.291Z,8.46
2023-10-09T10:23:38.398Z,7.63
2023-10-09T10:25:44.397Z,7.71
2023-10-09T10:28:40.883Z,7.81
2023-10-09T10:30:53.803Z,7.67
2023-10-09T10:32:59.871Z,7.63
2023-10-09T10:35:08.183Z,7.61
2023-10-09T10:37:13.489Z,7.76
2023-10-09T10:39:44.962Z,7.64
2023-10-09T10:42:01.043Z,8.13
2023-10-09T10:44:35.538Z,7.82
2023-10-09T10:46:45.304Z,7.60
2023-10-09T10:48:50.705Z,7.93
2023-10-09T10:50:59.710Z,7.85
2023-10-09T10:53:17.536Z,7.79
2023-10-09T10:55:32.458Z,8.03
2023-10-09T10:58:07.377Z,7.97
2023-10-09T11:00:36.774Z,7.99
2023-10-09T11:02:42.408Z,8.22
2023-10-09T11:04:55.198Z,8.29
2023-10-09T11:07:08.246Z,8.23
2023-10-09T11:09:23.325Z,8.09
2023-10-09T11:11:33.647Z,8.17
2023-10-09T11:13:38.361Z,8.01
2023-10-09T11:15:48.138Z,8.29
2023-10-09T11:18:00.649Z,8.72
2023-10-09T11:20:24.218Z,8.12
2023-10-09T11:22:29.982Z,8.03
2023-10-09T11:24:36.654Z,8.46
2023-10-09T11:26:41.957Z,8.11
2023-10-09T11:28:50.480Z,7.96
2023-10-09T11:30:56.966Z,8.01
2023-10-09T11:33:07.787Z,7.97
2023-10-09T11:35:19.364Z,8.31
2023-10-09T11:37:32.657Z,8.09
2023-10-09T11:39:36.976Z,8.37
2023-10-09T11:41:46.052Z,8.21
2023-10-09T11:43:53.377Z,8.50
2023-10-09T11:46:12.827Z,8.27
2023-10-09T11:48:35.366Z,8.44
2023-10-09T11:51:04.011Z,8.31
2023-10-09T11:53:11.057Z,7.94
2023-10-09T11:55:18.487Z,8.07
2023-10-09T11:57:30.305Z,8.14
2023-10-09T11:59:43.838Z,8.40
2023-10-09T12:01:54.659Z,8.22
2023-10-09T12:03:57.626Z,8.54
2023-10-09T12:06:13.619Z,8.20
2023-10-09T12:08:18.233Z,8.73
2023-10-09T12:10:26.269Z,8.30
2023-10-09T12:12:30.010Z,8.50
2023-10-09T12:14:35.169Z,8.63
2023-10-09T12:16:42.157Z,8.42
2023-10-09T12:18:51.760Z,8.98
2023-10-09T12:20:56.852Z,8.39
2023-10-09T12:23:02.869Z,8.56
2023-10-09T12:25:10.938Z,8.56
2023-10-09T12:27:14.213Z,8.43
2023-10-09T12:29:17.172Z,8.52
2023-10-09T12:31:25.890Z,8.46
2023-10-09T12:33:31.309Z,8.41
2023-10-09T12:35:42.165Z,8.57
2023-10-09T12:37:45.374Z,8.49
2023-10-09T12:39:49.212Z,8.52
2023-10-09T12:41:55.207Z,8.56
2023-10-09T12:44:01.682Z,8.45
2023-10-09T12:46:10.266Z,8.51
2023-10-09T12:48:14.485Z,8.76
2023-10-09T12:50:17.361Z,8.80
2023-10-09T12:52:21.569Z,8.54
2023-10-09T12:54:31.894Z,8.64
2023-10-09T12:56:39.685Z,8.70
2023-10-09T12:59:01.534Z,8.80
2023-10-09T13:01:14.315Z,8.78
2023-10-09T13:03:19.196Z,8.70
2023-10-09T13:05:27.719Z,8.58
2023-10-09T13:07:30.331Z,8.37
2023-10-09T13:09:45.893Z,8.42
2023-10-09T13:11:50.292Z,8.48
2023-10-09T13:13:53.473Z,8.73
2023-10-09T13:15:56.783Z,8.68
2023-10-09T13:17:59.542Z,8.98
2023-10-09T13:20:03.015Z,8.73
2023-10-09T13:22:14.929Z,8.91
2023-10-09T13:24:17.626Z,8.79
2023-10-09T13:26:32.958Z,8.87
2023-10-09T13:28:39.372Z,8.79
2023-10-09T13:30:50.963Z,8.69
2023-10-09T13:32:54.242Z,8.90
2023-10-09T13:34:57.330Z,8.70
2023-10-09T13:37:10.852Z,8.78
2023-10-09T13:39:28.627Z,8.98
2023-10-09T13:41:31.232Z,9.05
2023-10-09T13:43:34.574Z,8.95
2023-10-09T13:45:42.511Z,9.32
2023-10-09T13:47:47.981Z,8.72
2023-10-09T13:49:55.285Z,8.88
2023-10-09T13:52:04.553Z,9.06
2023-10-09T13:54:09.104Z,9.49
2023-10-09T13:56:16.888Z,9.28
2023-10-09T13:58:25.497Z,8.88
2023-10-09T14:00:35.854Z,8.95
2023-10-09T14:02:39.692Z,8.89
2023-10-09T14:04:42.288Z,9.45
2023-10-09T14:06:46.595Z,9.15
2023-10-09T14:08:49.630Z,9.53
2023-10-09T14:10:52.335Z,9.16
2023-10-09T14:12:57.463Z,9.43
2023-10-09T14:15:02.223Z,9.20
2023-10-09T14:17:13.323Z,9.23
2023-10-09T14:19:16.246Z,9.20
2023-10-09T14:21:19.936Z,9.52
2023-10-09T14:23:22.668Z,9.47
2023-10-09T14:25:25.543Z,9.25
2023-10-09T14:27:31.551Z,9.17
2023-10-09T14:29:34.085Z,9.36
2023-10-09T14:31:40.512Z,9.14
2023-10-09T14:33:44.906Z,9.49
2023-10-09T14:35:48.012Z,9.33
2023-10-09T14:37:51.144Z,9.59
2023-10-09T14:39:54.633Z,9.17
2023-10-09T14:41:59.129Z,9.83
2023-10-09T14:44:02.837Z,9.50
2023-10-09T14:46:12.259Z,9.30
2023-10-09T14:48:16.405Z,9.23
2023-10-09T14:50:23.882Z,9.49
2023-10-09T14:52:29.061Z,9.20
2023-10-09T14:54:31.765Z,9.43
2023-10-09T14:56:38.316Z,9.20
2023-10-09T14:58:41.617Z,9.45
2023-10-09T15:00:48.341Z,9.45
2023-10-09T15:02:54.706Z,9.28
2023-10-09T15:04:58.862Z,9.50
2023-10-09T15:07:03.210Z,9.23
2023-10-09T15:09:23.270Z,9.63
2023-10-09T15:11:27.887Z,9.52
2023-10-09T15:13:32.436Z,10.08
2023-10-09T15:15:35.267Z,9.60
2023-10-09T15:17:38.318Z,9.58
2023-10-09T15:19:41.340Z,9.69
2023-10-09T15:21:47.702Z,9.57
2023-10-09T15:23:52.945Z,9.73
2023-10-09T15:25:56.384Z,9.44
2023-10-09T15:27:59.601Z,9.81
2023-10-09T15:30:02.402Z,9.37
2023-10-09T15:32:15.966Z,9.44
2023-10-09T15:34:20.214Z,9.51
2023-10-09T15:36:24.745Z,9.45
2023-10-09T15:38:27.701Z,9.27
2023-10-09T15:40:37.236Z,9.40
2023-10-09T15:42:40.007Z,9.34
2023-10-09T15:44:43.633Z,9.48
2023-10-09T15:46:49.322Z,9.43
2023-10-09T15:48:54.350Z,9.48
2023-10-09T15:50:57.105Z,9.66
2023-10-09T15:53:00.310Z,9.35
2023-10-09T15:55:03.574Z,9.75
2023-10-09T15:57:13.077Z,9.55
2023-10-09T15:59:18.486Z,9.79
2023-10-09T16:01:21.595Z,9.93
2023-10-09T16:03:26.155Z,9.53
2023-10-09T16:05:30.483Z,9.71
2023-10-09T16:07:33.476Z,9.62
2023-10-09T16:09:40.763Z,9.96
2023-10-09T16:11:46.274Z,9.83
2023-10-09T16:13:48.969Z,9.61
2023-10-09T16:15:51.912Z,10.17
2023-10-09T16:18:05.371Z,9.88
2023-10-09T16:20:15.714Z,9.65
2023-10-09T16:22:19.526Z,9.89
2023-10-09T16:24:22.192Z,9.78
2023-10-09T16:26:25.992Z,9.84
2023-10-09T16:28:29.969Z,9.70
2023-10-09T16:30:32.573Z,9.86
2023-10-09T16:32:35.632Z,9.75
2023-10-09T16:34:40.700Z,9.88
2023-10-09T16:36:43.610Z,9.66
2023-10-09T16:38:48.201Z,9.99
2023-10-09T16:40:56.268Z,9.95
2023-10-09T16:43:02.928Z,9.92
2023-10-09T16:45:10.529Z,10.09
2023-10-09T16:47:13.365Z,9.73
2023-10-09T16:49:16.108Z,9.85
2023-10-09T16:51:23.756Z,9.83
2023-10-09T16:53:27.276Z,10.04
2023-10-09T16:55:32.130Z,9.93
2023-10-09T16:57:36.364Z,10.11
2023-10-09T16:59:40.293Z,10.35
2023-10-09T17:01:46.555Z,9.83
2023-10-09T17:03:56.599Z,10.06
2023-10-09T17:06:00.116Z,10.37
2023-10-09T17:08:11.505Z,9.78
2023-10-09T17:10:17.508Z,10.17
2023-10-09T17:12:20.373Z,9.93
2023-10-09T17:14:28.064Z,9.91
2023-10-09T17:16:32.653Z,9.80
2023-10-09T17:18:36.161Z,9.82
2023-10-09T17:20:50.291Z,9.81
2023-10-09T17:22:53.310Z,9.98
2023-10-09T17:24:56.179Z,10.09
2023-10-09T17:26:59.468Z,9.74
2023-10-09T17:29:02.740Z,9.64
2023-10-09T17:31:06.186Z,9.51
2023-10-09T17:33:09.618Z,9.80
2023-10-09T17:35:14.213Z,9.89
2023-10-09T17:37:17.010Z,9.84
2023-10-09T17:39:27.786Z,9.79
2023-10-09T17:41:32.236Z,9.75
2023-10-09T17:43:34.755Z,9.72
2023-10-09T17:45:42.936Z,9.97
2023-10-09T17:47:47.015Z,9.93
2023-10-09T17:49:50.340Z,9.96
2023-10-09T17:51:55.026Z,9.98
2023-10-09T17:53:59.216Z,9.70
2023-10-09T17:56:02.132Z,9.84
2023-10-09T17:58:08.567Z,9.87
2023-10-09T18:00:23.939Z,9.98
2023-10-09T18:02:29.822Z,9.87
2023-10-09T18:04:36.992Z,9.76
2023-10-09T18:06:41.366Z,9.81
2023-10-09T18:08:44.331Z,10.16
2023-10-09T18:10:47.143Z,9.91
2023-10-09T18:12:51.334Z,9.84
2023-10-09T18:15:01.256Z,9.64
2023-10-09T18:17:04.568Z,9.78
2023-10-09T18:19:08.893Z,10.02
2023-10-09T18:21:12.304Z,10.08
2023-10-09T18:23:15.328Z,9.70
2023-10-09T18:25:20.367Z,9.64
2023-10-09T18:27:24.257Z,9.66
2023-10-09T18:29:27.316Z,9.61
2023-10-09T18:31:30.744Z,9.77
2023-10-09T18:33:34.734Z,9.82
2023-10-09T18:35:40.003Z,9.73
2023-10-09T18:37:43.183Z,10.13
2023-10-09T18:39:48.442Z,9.91
2023-10-09T18:41:55.755Z,9.65
2023-10-09T18:44:01.356Z,9.83
2023-10-09T18:46:11.112Z,9.78
2023-10-09T18:48:14.137Z,9.77
2023-10-09T18:50:18.161Z,9.96
2023-10-09T18:52:21.974Z,9.78
2023-10-09T18:54:25.781Z,9.74
2023-10-09T18:56:30.023Z,9.68
2023-10-09T18:58:33.421Z,9.97
2023-10-09T19:00:42.862Z,9.61
2023-10-09T19:02:45.678Z,9.78
2023-10-09T19:04:49.034Z,9.66
2023-10-09T19:06:55.452Z,9.81
2023-10-09T19:09:00.169Z,9.77
2023-10-09T19:11:10.962Z,9.73
2023-10-09T19:13:15.831Z,9.51
2023-10-09T19:15:20.300Z,9.87
2023-10-09T19:17:23.314Z,9.52
2023-10-09T19:19:26.926Z,9.59
2023-10-09T19:21:31.077Z,9.62
2023-10-09T19:23:34.881Z,9.53
2023-10-09T19:25:38.248Z,9.64
2023-10-09T19:27:40.843Z,9.54
2023-10-09T19:29:47.384Z,9.84
2023-10-09T19:31:52.481Z,9.50
2023-10-09T19:33:55.966Z,9.50
2023-10-09T19:36:13.419Z,9.45
2023-10-09T19:38:17.870Z,9.25
2023-10-09T19:40:23.208Z,9.30
2023-10-09T19:42:26.517Z,9.18
2023-10-09T19:44:30.327Z,9.20
2023-10-09T19:46:34.968Z,9.72
2023-10-09T19:48:38.022Z,9.17
2023-10-09T19:50:41.222Z,9.37
2023-10-09T19:52:52.137Z,9.73
2023-10-09T19:54:57.846Z,9.20
2023-10-09T19:57:00.767Z,9.28
2023-10-09T19:59:03.544Z,9.42
2023-10-09T20:01:09.331Z,9.35
2023-10-09T20:03:12.976Z,9.29
2023-10-09T20:05:17.386Z,9.26
2023-10-09T20:07:20.889Z,9.20
2023-10-09T20:09:23.739Z,9.11
2023-10-09T20:11:26.893Z,9.02
2023-10-09T20:13:29.698Z,8.81
2023-10-09T20:15:35.344Z,9.49
2023-10-09T20:17:38.634Z,9.40
2023-10-09T20:19:41.753Z,9.27
2023-10-09T20:21:45.110Z,9.25
2023-10-09T20:23:49.992Z,9.25
2023-10-09T20:26:06.803Z,9.38
2023-10-09T20:28:12.352Z,9.20
2023-10-09T20:30:16.286Z,9.45
2023-10-09T20:32:21.283Z,9.30
2023-10-09T20:34:26.477Z,9.10
2023-10-09T20:36:30.110Z,9.42
2023-10-09T20:38:32.757Z,9.35
2023-10-09T20:40:36.859Z,9.30
2023-10-09T20:42:40.205Z,9.19
2023-10-09T20:44:44.215Z,9.27
2023-10-09T20:46:49.927Z,9.09
2023-10-09T20:48:52.816Z,9.24
2023-10-09T20:50:55.557Z,9.66
2023-10-09T20:52:59.024Z,9.29
2023-10-09T20:55:03.130Z,9.32
2023-10-09T20:57:06.145Z,9.32
2023-10-09T20:59:10.193Z,9.43
2023-10-09T21:01:16.751Z,9.41
2023-10-09T21:03:21.328Z,9.27
2023-10-09T21:05:26.845Z,9.07
2023-10-09T21:07:31.953Z,9.35
2023-10-09T21:09:36.453Z,9.22
2023-10-09T21:11:39.295Z,9.13
2023-10-09T21:13:42.143Z,9.22
2023-10-09T21:15:47.340Z,9.68
2023-10-09T21:17:53.826Z,9.75
2023-10-09T21:19:56.510Z,9.21
2023-10-09T21:21:59.267Z,9.31
2023-10-09T21:24:01.938Z,9.43
2023-10-09T21:26:05.244Z,9.64
2023-10-09T21:28:08.721Z,9.89
2023-10-09T21:30:12.755Z,9.14
2023-10-09T21:32:15.408Z,9.45
2023-10-09T21:34:18.317Z,9.34
2023-10-09T21:36:21.515Z,9.25
2023-10-09T21:38:26.225Z,9.31
2023-10-09T21:40:30.447Z,9.36
2023-10-09T21:42:33.955Z,9.48
2023-10-09T21:44:36.905Z,9.19
2023-10-09T21:46:39.314Z,9.32
2023-10-09T21:48:44.373Z,9.73
2023-10-09T21:50:47.069Z,9.81
2023-10-09T21:52:49.893Z,9.35
2023-10-09T21:54:53.253Z,9.64
2023-10-09T21:56:55.837Z,9.32
2023-10-09T21:58:58.462Z,9.17
2023-10-09T22:01:03.834Z,9.32
2023-10-09T22:03:12.764Z,9.42
2023-10-09T22:05:16.195Z,9.26
2023-10-09T22:07:31.404Z,9.26
2023-10-09T22:09:35.141Z,9.23
2023-10-09T22:11:37.964Z,9.27
2023-10-09T22:13:40.578Z,9.09
2023-10-09T22:15:47.100Z,9.32
2023-10-09T22:17:50.639Z,9.25
2023-10-09T22:19:55.282Z,9.31
2023-10-09T22:21:58.131Z,9.08
2023-10-09T22:24:00.575Z,9.22
2023-10-09T22:26:03.609Z,9.16
2023-10-09T22:28:10.652Z,9.57
2023-10-09T22:30:14.486Z,9.74
2023-10-09T22:32:18.635Z,9.17
2023-10-09T22:34:21.478Z,9.30
2023-10-09T22:36:37.958Z,9.25
2023-10-09T22:38:52.405Z,9.37
2023-10-09T22:40:55.305Z,8.96
2023-10-09T22:42:57.972Z,9.29
2023-10-09T22:45:00.849Z,9.07
2023-10-09T22:47:09.684Z,9.24
2023-10-09T22:49:16.270Z,8.99
2023-10-09T22:51:26.038Z,9.15
2023-10-09T22:53:39.717Z,8.89
2023-10-09T22:55:52.270Z,8.98
2023-10-09T22:57:58.037Z,9.37
2023-10-09T23:00:02.002Z,9.06
2023-10-09T23:02:06.575Z,9.08
2023-10-09T23:04:15.665Z,9.00
2023-10-09T23:06:20.712Z,8.92
2023-10-09T23:08:23.803Z,9.19
2023-10-09T23:10:26.243Z,9.21
2023-10-09T23:12:36.553Z,9.22
2023-10-09T23:14:41.241Z,8.97
2023-10-09T23:16:50.508Z,9.12
2023-10-09T23:19:15.572Z,9.23
2023-10-09T23:21:22.706Z,8.88
2023-10-09T23:23:28.704Z,9.20
2023-10-09T23:25:35.047Z,9.05
2023-10-09T23:27:39.563Z,9.36
2023-10-09T23:29:53.210Z,9.36
2023-10-09T23:32:15.634Z,9.22
2023-10-09T23:34:21.528Z,9.05
2023-10-09T23:36:28.459Z,9.42
2023-10-09T23:38:57.408Z,9.58
2023-10-09T23:41:05.679Z,9.22
2023-10-09T23:43:32.330Z,9.63
2023-10-09T23:45:35.194Z,9.34
2023-10-09T23:47:42.753Z,9.07
2023-10-09T23:49:45.722Z,9.28
2023-10-09T23:51:56.009Z,9.17
2023-10-09T23:54:02.998Z,9.26
2023-10-09T23:56:11.941Z,9.02
2023-10-09T23:58:19.531Z,9.20
